createdAt,value
2022-08-19T00:02:13.966Z,23.07
2022-08-19T00:04:41.404Z,24.13
2022-08-19T00:07:08.723Z,22.73
2022-08-19T00:09:36.487Z,23.70
2022-08-19T00:12:04.372Z,24.20
2022-08-19T00:14:35.372Z,26.17
2022-08-19T00:17:04.146Z,26.90
2022-08-19T00:19:31.670Z,23.00
2022-08-19T00:21:58.778Z,25.10
2022-08-19T00:24:27.115Z,22.03
2022-08-19T00:26:54.267Z,23.17
2022-08-19T00:29:22.628Z,23.43
2022-08-19T00:31:51.331Z,23.27
2022-08-19T00:34:18.533Z,24.37
2022-08-19T00:36:46.608Z,24.47
2022-08-19T00:39:15.230Z,25.97
2022-08-19T00:41:44.088Z,25.43
2022-08-19T00:44:28.078Z,25.40
2022-08-19T00:47:00.080Z,24.43
2022-08-19T00:49:41.933Z,22.97
2022-08-19T00:52:13.541Z,21.60
2022-08-19T00:54:42.824Z,23.53
2022-08-19T00:57:16.956Z,20.87
2022-08-19T01:00:00.807Z,23.20
2022-08-19T01:02:31.829Z,23.97
2022-08-19T01:05:00.227Z,23.47
2022-08-19T01:07:27.840Z,22.70
2022-08-19T01:09:55.508Z,20.03
2022-08-19T01:12:23.084Z,22.07
2022-08-19T01:14:51.522Z,21.83
2022-08-19T01:17:20.788Z,20.73
2022-08-19T01:19:49.363Z,22.43
2022-08-19T01:22:30.113Z,22.87
2022-08-19T01:24:59.331Z,22.40
2022-08-19T01:27:26.757Z,23.43
2022-08-19T01:29:57.319Z,22.40
2022-08-19T01:32:33.428Z,22.07
2022-08-19T01:35:03.820Z,23.17
2022-08-19T01:37:42.424Z,23.53
2022-08-19T01:40:11.196Z,21.20
2022-08-19T01:42:38.427Z,22.60
2022-08-19T01:45:08.602Z,20.83
2022-08-19T01:47:38.215Z,22.60
2022-08-19T01:50:11.278Z,21.57
2022-08-19T01:52:42.190Z,20.63
2022-08-19T01:55:17.838Z,22.20
2022-08-19T01:57:52.852Z,23.03
2022-08-19T02:00:24.325Z,23.87
2022-08-19T02:02:51.786Z,22.63
2022-08-19T02:05:19.575Z,24.03
2022-08-19T02:07:46.875Z,23.17
2022-08-19T02:10:19.824Z,22.50
2022-08-19T02:12:47.659Z,26.70
2022-08-19T02:15:15.035Z,24.70
2022-08-19T02:17:43.414Z,24.83
2022-08-19T02:20:11.717Z,24.50
2022-08-19T02:22:38.945Z,26.73
2022-08-19T02:25:06.632Z,27.67
2022-08-19T02:27:34.883Z,28.50
2022-08-19T02:30:02.238Z,28.27
2022-08-19T02:32:31.620Z,27.40
2022-08-19T02:34:58.876Z,25.67
2022-08-19T02:37:44.474Z,25.63
2022-08-19T02:40:12.804Z,31.00
2022-08-19T02:42:41.948Z,29.97
2022-08-19T02:45:10.381Z,28.80
2022-08-19T02:47:37.788Z,28.13
2022-08-19T02:50:06.478Z,29.03
2022-08-19T02:52:36.017Z,26.70
2022-08-19T02:55:03.947Z,29.90
2022-08-19T02:57:35.447Z,28.00
2022-08-19T03:00:06.675Z,27.10
2022-08-19T03:02:33.907Z,29.73
2022-08-19T03:05:01.093Z,28.57
2022-08-19T03:07:28.240Z,27.33
2022-08-19T03:09:55.646Z,30.43
2022-08-19T03:12:22.810Z,27.20
2022-08-19T03:14:49.965Z,28.10
2022-08-19T03:17:17.385Z,27.60
2022-08-19T03:19:44.500Z,29.77
2022-08-19T03:22:11.813Z,28.90
2022-08-19T03:24:39.729Z,27.17
2022-08-19T03:27:06.836Z,26.97
2022-08-19T03:29:43.258Z,26.83
2022-08-19T03:32:27.230Z,28.73
2022-08-19T03:34:59.239Z,27.37
2022-08-19T03:37:27.188Z,25.53
2022-08-19T03:39:54.327Z,28.80
2022-08-19T03:42:32.041Z,27.30
2022-08-19T03:45:08.379Z,28.53
2022-08-19T03:47:35.613Z,26.87
2022-08-19T03:50:03.429Z,28.03
2022-08-19T03:52:30.613Z,29.87
2022-08-19T03:54:57.815Z,27.63
2022-08-19T03:57:32.125Z,28.20
2022-08-19T04:00:12.895Z,30.10
2022-08-19T04:02:58.266Z,28.20
2022-08-19T04:05:30.256Z,28.40
2022-08-19T04:08:00.176Z,27.63
2022-08-19T04:10:29.430Z,27.47
2022-08-19T04:12:59.082Z,26.57
2022-08-19T04:15:26.243Z,29.63
2022-08-19T04:17:53.412Z,26.37
2022-08-19T04:20:20.673Z,31.30
2022-08-19T04:22:47.845Z,27.00
2022-08-19T04:25:15.061Z,26.27
2022-08-19T04:27:47.924Z,26.40
2022-08-19T04:30:16.137Z,28.73
2022-08-19T04:32:44.814Z,26.20
2022-08-19T04:35:16.909Z,28.93
2022-08-19T04:37:45.981Z,27.40
2022-08-19T04:40:31.818Z,25.60
2022-08-19T04:42:59.637Z,25.80
2022-08-19T04:45:26.906Z,24.57
2022-08-19T04:48:27.318Z,27.20
2022-08-19T04:50:47.121Z,26.33
2022-08-19T04:53:14.358Z,29.33
2022-08-19T04:55:43.522Z,29.37
2022-08-19T04:58:11.103Z,26.97
2022-08-19T05:00:41.095Z,27.77
2022-08-19T05:03:08.680Z,24.40
2022-08-19T05:05:45.298Z,26.33
2022-08-19T05:08:30.930Z,28.20
2022-08-19T05:10:59.309Z,28.23
2022-08-19T05:13:26.899Z,28.13
2022-08-19T05:15:59.438Z,27.60
2022-08-19T05:18:45.922Z,28.60
2022-08-19T05:21:35.695Z,29.63
2022-08-19T05:24:03.475Z,29.97
2022-08-19T05:26:30.705Z,29.20
2022-08-19T05:28:57.883Z,29.20
2022-08-19T05:31:25.065Z,30.00
2022-08-19T05:33:52.309Z,28.90
2022-08-19T05:36:21.137Z,28.60
2022-08-19T05:38:48.831Z,29.33
2022-08-19T05:41:17.652Z,28.53
2022-08-19T05:43:44.813Z,31.80
2022-08-19T05:46:27.792Z,32.53
2022-08-19T05:48:57.615Z,30.60
2022-08-19T05:51:29.181Z,31.20
2022-08-19T05:53:56.602Z,30.47
2022-08-19T05:56:23.928Z,31.20
2022-08-19T05:58:51.152Z,31.87
2022-08-19T06:01:19.880Z,33.00
2022-08-19T06:03:48.705Z,30.40
2022-08-19T06:06:17.235Z,30.23
2022-08-19T06:08:46.294Z,34.37
2022-08-19T06:11:51.768Z,32.10
2022-08-19T06:14:27.755Z,32.10
2022-08-19T06:16:55.738Z,30.13
2022-08-19T06:19:29.405Z,34.17
2022-08-19T06:21:59.286Z,31.37
2022-08-19T06:24:30.133Z,33.93
2022-08-19T06:27:01.453Z,33.90
2022-08-19T06:29:31.106Z,36.40
2022-08-19T06:32:01.258Z,32.23
2022-08-19T06:34:33.532Z,34.70
2022-08-19T06:37:02.586Z,35.73
2022-08-19T06:39:39.380Z,37.20
2022-08-19T06:42:11.033Z,33.07
2022-08-19T06:44:42.741Z,33.97
2022-08-19T06:47:23.358Z,36.50
2022-08-19T06:50:03.922Z,36.10
2022-08-19T06:52:38.263Z,35.10
2022-08-19T06:55:06.851Z,32.83
2022-08-19T06:57:35.061Z,33.70
2022-08-19T07:00:03.288Z,34.57
2022-08-19T07:02:30.599Z,31.73
2022-08-19T07:05:03.666Z,31.53
2022-08-19T07:07:34.672Z,33.90
2022-08-19T07:10:04.860Z,33.83
2022-08-19T07:12:35.558Z,30.97
2022-08-19T07:15:09.814Z,35.20
2022-08-19T07:17:40.389Z,34.90
2022-08-19T07:20:10.177Z,34.63
2022-08-19T07:22:39.746Z,34.23
2022-08-19T07:25:09.608Z,34.80
2022-08-19T07:27:39.666Z,33.17
2022-08-19T07:30:12.249Z,33.90
2022-08-19T07:32:40.631Z,32.43
2022-08-19T07:35:09.942Z,31.43
2022-08-19T07:37:38.472Z,32.57
2022-08-19T07:40:08.907Z,32.37
2022-08-19T07:42:36.478Z,29.60
2022-08-19T07:45:06.285Z,30.33
2022-08-19T07:47:47.732Z,30.77
2022-08-19T07:50:20.750Z,30.17
2022-08-19T07:52:50.901Z,30.80
2022-08-19T07:55:41.039Z,29.40
2022-08-19T07:58:14.359Z,31.77
2022-08-19T08:00:43.769Z,31.17
2022-08-19T08:03:11.818Z,31.27
2022-08-19T08:05:57.700Z,31.60
2022-08-19T08:08:36.768Z,32.20
2022-08-19T08:11:07.760Z,30.30
2022-08-19T08:13:39.354Z,30.97
2022-08-19T08:16:10.215Z,29.33
2022-08-19T08:18:50.236Z,28.47
2022-08-19T08:21:18.305Z,28.43
2022-08-19T08:23:45.631Z,29.57
2022-08-19T08:26:14.175Z,28.33
2022-08-19T08:28:43.274Z,27.90
2022-08-19T08:31:15.758Z,23.63
2022-08-19T08:33:43.436Z,27.47
2022-08-19T08:36:12.207Z,23.93
2022-08-19T08:38:40.793Z,23.47
2022-08-19T08:41:42.180Z,22.93
2022-08-19T08:44:21.910Z,22.43
2022-08-19T08:47:04.851Z,22.43
2022-08-19T08:50:09.473Z,22.87
2022-08-19T08:52:44.187Z,22.57
2022-08-19T08:55:20.609Z,21.27
2022-08-19T08:57:52.361Z,20.83
2022-08-19T09:00:25.161Z,20.43
2022-08-19T09:02:52.621Z,20.53
2022-08-19T09:05:26.009Z,20.63
2022-08-19T09:08:12.191Z,18.43
2022-08-19T09:10:58.434Z,18.57
2022-08-19T09:13:43.099Z,16.97
2022-08-19T09:16:28.072Z,16.60
2022-08-19T09:19:02.737Z,17.23
2022-08-19T09:21:33.494Z,17.10
2022-08-19T09:24:03.512Z,15.70
2022-08-19T09:26:47.622Z,17.13
2022-08-19T09:29:22.579Z,16.37
2022-08-19T09:31:51.117Z,15.47
2022-08-19T09:34:21.222Z,14.40
2022-08-19T09:36:54.777Z,15.93
2022-08-19T09:39:22.872Z,15.33
2022-08-19T09:41:51.155Z,15.27
2022-08-19T09:44:19.271Z,14.97
2022-08-19T09:46:50.065Z,16.20
2022-08-19T09:49:19.975Z,14.90
2022-08-19T09:51:52.852Z,14.23
2022-08-19T09:54:25.075Z,12.00
2022-08-19T09:56:54.292Z,11.60
2022-08-19T09:59:22.217Z,10.33
2022-08-19T10:01:49.516Z,12.53
2022-08-19T10:04:20.389Z,10.97
2022-08-19T10:06:57.297Z,9.50
2022-08-19T10:09:33.962Z,10.07
2022-08-19T10:12:04.483Z,9.53
2022-08-19T10:14:33.418Z,9.90
2022-08-19T10:17:18.345Z,10.30
2022-08-19T10:19:55.179Z,10.13
2022-08-19T10:22:25.637Z,9.87
2022-08-19T10:24:54.231Z,10.80
2022-08-19T10:27:21.989Z,10.23
2022-08-19T10:29:50.514Z,10.40
2022-08-19T10:32:18.067Z,10.20
2022-08-19T10:34:48.205Z,9.60
2022-08-19T10:37:28.805Z,10.57
2022-08-19T10:39:58.597Z,9.00
2022-08-19T10:42:25.844Z,8.80
2022-08-19T10:44:53.166Z,8.97
2022-08-19T10:47:25.657Z,8.53
2022-08-19T10:50:14.172Z,7.90
2022-08-19T10:52:50.012Z,8.50
2022-08-19T10:55:40.790Z,8.30
2022-08-19T10:58:23.688Z,7.67
2022-08-19T11:00:59.787Z,6.93
2022-08-19T11:03:31.799Z,7.90
2022-08-19T11:06:06.970Z,6.77
2022-08-19T11:08:38.621Z,7.50
2022-08-19T11:11:08.745Z,7.33
2022-08-19T11:13:54.937Z,8.30
2022-08-19T11:16:24.781Z,6.77
2022-08-19T11:19:03.377Z,6.50
2022-08-19T11:21:35.504Z,6.43
2022-08-19T11:24:08.923Z,6.43
2022-08-19T11:26:38.521Z,7.13
2022-08-19T11:29:12.541Z,6.60
2022-08-19T11:31:46.501Z,6.83
2022-08-19T11:34:18.728Z,7.40
2022-08-19T11:36:48.722Z,6.43
2022-08-19T11:39:19.871Z,6.03
2022-08-19T11:41:48.091Z,5.80
2022-08-19T11:44:15.987Z,5.70
2022-08-19T11:46:48.671Z,4.70
2022-08-19T11:49:22.811Z,4.63
2022-08-19T11:51:51.770Z,4.80
2022-08-19T11:54:21.133Z,6.07
2022-08-19T11:56:50.249Z,5.73
2022-08-19T11:59:17.630Z,5.13
2022-08-19T12:01:45.033Z,4.97
2022-08-19T12:04:12.810Z,5.07
2022-08-19T12:06:42.663Z,4.27
2022-08-19T12:09:11.955Z,4.93
2022-08-19T12:11:40.505Z,4.70
2022-08-19T12:14:14.593Z,5.67
2022-08-19T12:16:42.761Z,5.97
2022-08-19T12:19:22.391Z,6.00
2022-08-19T12:21:51.575Z,7.60
2022-08-19T12:24:24.307Z,7.07
2022-08-19T12:26:53.396Z,6.77
2022-08-19T12:29:23.898Z,6.83
2022-08-19T12:31:52.553Z,7.50
2022-08-19T12:34:21.247Z,6.73
2022-08-19T12:36:50.573Z,7.13
2022-08-19T12:39:18.470Z,5.83
2022-08-19T12:41:54.105Z,5.87
2022-08-19T12:44:28.752Z,5.50
2022-08-19T12:47:00.098Z,5.33
2022-08-19T12:49:30.863Z,5.83
2022-08-19T12:52:22.436Z,6.03
2022-08-19T12:55:04.058Z,5.17
2022-08-19T12:57:34.288Z,4.77
2022-08-19T13:00:10.014Z,4.90
2022-08-19T13:02:38.804Z,4.83
2022-08-19T13:05:12.368Z,5.00
2022-08-19T13:07:42.005Z,5.47
2022-08-19T13:10:12.942Z,5.57
2022-08-19T13:12:42.232Z,4.93
2022-08-19T13:15:11.350Z,4.90
2022-08-19T13:17:41.036Z,5.20
2022-08-19T13:20:12.374Z,5.27
2022-08-19T13:22:39.947Z,4.27
2022-08-19T13:25:08.870Z,4.67
2022-08-19T13:27:37.383Z,4.27
2022-08-19T13:30:33.187Z,4.43
2022-08-19T13:33:15.547Z,6.37
2022-08-19T13:35:56.218Z,5.70
2022-08-19T13:38:24.944Z,7.20
2022-08-19T13:40:54.275Z,7.87
2022-08-19T13:43:27.132Z,7.40
2022-08-19T13:45:58.642Z,6.70
2022-08-19T13:48:30.009Z,6.60
2022-08-19T13:50:57.489Z,7.00
2022-08-19T13:53:25.780Z,7.57
2022-08-19T13:55:54.780Z,8.20
2022-08-19T13:58:23.738Z,8.20
2022-08-19T14:00:51.225Z,7.60
2022-08-19T14:03:18.791Z,9.70
2022-08-19T14:05:47.859Z,10.07
2022-08-19T14:08:15.245Z,9.37
2022-08-19T14:10:45.551Z,8.70
2022-08-19T14:13:19.498Z,8.17
2022-08-19T14:15:48.495Z,7.57
2022-08-19T14:18:18.203Z,7.87
2022-08-19T14:20:46.115Z,8.27
2022-08-19T14:23:14.851Z,8.17
2022-08-19T14:25:42.237Z,7.43
2022-08-19T14:28:09.561Z,7.63
2022-08-19T14:30:38.873Z,7.50
2022-08-19T14:33:08.424Z,7.10
2022-08-19T14:35:36.099Z,7.30
2022-08-19T14:38:06.927Z,7.23
2022-08-19T14:40:35.924Z,7.07
2022-08-19T14:43:05.584Z,6.33
2022-08-19T14:45:38.246Z,5.80
2022-08-19T14:48:19.068Z,6.07
2022-08-19T14:50:47.011Z,6.13
2022-08-19T14:53:14.257Z,5.57
2022-08-19T14:55:46.963Z,5.23
2022-08-19T14:58:28.512Z,5.13
2022-08-19T15:01:02.956Z,5.50
2022-08-19T15:03:30.874Z,5.57
2022-08-19T15:05:59.503Z,5.57
2022-08-19T15:08:29.623Z,5.50
2022-08-19T15:10:59.153Z,4.80
2022-08-19T15:13:28.621Z,4.30
2022-08-19T15:15:56.584Z,4.20
2022-08-19T15:18:24.147Z,4.03
2022-08-19T15:20:52.221Z,3.83
2022-08-19T15:23:21.419Z,4.40
2022-08-19T15:25:49.634Z,3.50
2022-08-19T15:28:17.530Z,3.27
2022-08-19T15:30:45.225Z,3.07
2022-08-19T15:33:15.526Z,4.20
2022-08-19T15:35:43.783Z,3.73
2022-08-19T15:38:13.984Z,3.70
2022-08-19T15:40:42.915Z,3.60
2022-08-19T15:43:10.156Z,3.90
2022-08-19T15:45:56.378Z,3.70
2022-08-19T15:48:23.678Z,3.20
2022-08-19T15:50:51.071Z,3.90
2022-08-19T15:53:18.213Z,3.27
2022-08-19T15:55:47.709Z,3.50
2022-08-19T15:58:35.719Z,3.47
2022-08-19T16:01:26.804Z,3.37
2022-08-19T16:04:15.950Z,3.40
2022-08-19T16:06:54.943Z,3.43
2022-08-19T16:09:31.703Z,3.63
2022-08-19T16:12:05.000Z,3.33
2022-08-19T16:14:38.443Z,3.60
2022-08-19T16:17:06.024Z,3.93
2022-08-19T16:19:52.775Z,3.80
2022-08-19T16:22:21.119Z,3.40
2022-08-19T16:24:48.559Z,3.40
2022-08-19T16:27:16.723Z,3.67
2022-08-19T16:29:43.882Z,3.70
2022-08-19T16:32:12.332Z,3.50
2022-08-19T16:34:41.649Z,3.57
2022-08-19T16:37:10.500Z,3.63
2022-08-19T16:39:38.634Z,3.47
2022-08-19T16:42:10.199Z,2.97
2022-08-19T16:44:42.997Z,3.03
2022-08-19T16:47:10.557Z,3.10
2022-08-19T16:49:54.190Z,3.03
2022-08-19T16:52:26.503Z,3.03
2022-08-19T16:54:54.115Z,2.90
2022-08-19T16:57:23.957Z,3.13
2022-08-19T16:59:52.569Z,3.40
2022-08-19T17:02:23.416Z,3.53
2022-08-19T17:04:58.569Z,3.67
2022-08-19T17:07:32.183Z,3.87
2022-08-19T17:10:03.910Z,3.53
2022-08-19T17:12:32.346Z,3.67
2022-08-19T17:15:02.696Z,3.67
2022-08-19T17:17:31.174Z,3.73
2022-08-19T17:20:00.947Z,4.30
2022-08-19T17:22:29.466Z,4.30
2022-08-19T17:24:58.334Z,4.20
2022-08-19T17:27:32.210Z,4.27
2022-08-19T17:30:02.844Z,4.33
2022-08-19T17:32:35.272Z,3.30
2022-08-19T17:35:04.844Z,4.77
2022-08-19T17:37:33.797Z,4.70
2022-08-19T17:40:06.782Z,4.03
2022-08-19T17:42:36.850Z,4.30
2022-08-19T17:45:06.277Z,4.07
2022-08-19T17:47:35.226Z,4.43
2022-08-19T17:50:04.448Z,4.83
2022-08-19T17:52:31.885Z,4.03
2022-08-19T17:54:59.595Z,4.70
2022-08-19T17:57:26.957Z,4.47
2022-08-19T17:59:54.273Z,5.10
2022-08-19T18:02:23.129Z,4.40
2022-08-19T18:04:50.458Z,4.83
2022-08-19T18:07:21.684Z,4.93
2022-08-19T18:09:52.765Z,4.87
2022-08-19T18:12:29.336Z,5.30
2022-08-19T18:14:59.150Z,5.17
2022-08-19T18:17:26.379Z,5.63
2022-08-19T18:19:53.681Z,5.23
2022-08-19T18:22:35.713Z,5.30
2022-08-19T18:25:14.057Z,5.83
2022-08-19T18:27:43.564Z,5.87
2022-08-19T18:30:11.666Z,5.50
2022-08-19T18:32:42.445Z,6.07
2022-08-19T18:35:14.923Z,6.00
2022-08-19T18:37:44.240Z,6.40
2022-08-19T18:40:39.954Z,6.27
2022-08-19T18:43:17.116Z,7.27
2022-08-19T18:46:03.184Z,6.60
2022-08-19T18:48:49.661Z,7.03
2022-08-19T18:51:18.560Z,7.10
2022-08-19T18:53:49.856Z,7.53
2022-08-19T18:56:20.306Z,7.13
2022-08-19T18:58:47.854Z,9.00
2022-08-19T19:01:22.668Z,7.33
2022-08-19T19:03:53.725Z,6.90
2022-08-19T19:06:29.110Z,6.57
2022-08-19T19:08:57.032Z,7.00
2022-08-19T19:11:35.615Z,9.37
2022-08-19T19:14:06.290Z,8.40
2022-08-19T19:16:33.833Z,10.67
2022-08-19T19:19:07.044Z,10.13
2022-08-19T19:21:35.572Z,9.40
2022-08-19T19:24:03.099Z,10.53
2022-08-19T19:26:30.743Z,11.07
2022-08-19T19:28:58.513Z,10.53
2022-08-19T19:31:27.127Z,11.77
2022-08-19T19:33:56.999Z,11.37
2022-08-19T19:36:24.460Z,11.53
2022-08-19T19:38:51.949Z,10.43
2022-08-19T19:41:24.372Z,9.80
2022-08-19T19:44:29.296Z,10.20
2022-08-19T19:46:48.954Z,8.90
2022-08-19T19:49:16.329Z,8.97
2022-08-19T19:51:44.014Z,9.63
2022-08-19T19:54:14.200Z,9.40
2022-08-19T19:56:45.192Z,9.90
2022-08-19T19:59:23.342Z,10.47
2022-08-19T20:01:54.490Z,9.83
2022-08-19T20:04:22.050Z,10.77
2022-08-19T20:07:00.624Z,10.10
2022-08-19T20:09:43.622Z,10.30
2022-08-19T20:12:18.374Z,9.97
2022-08-19T20:14:49.812Z,10.23
2022-08-19T20:17:17.079Z,10.63
2022-08-19T20:19:48.101Z,10.40
2022-08-19T20:22:15.619Z,11.13
2022-08-19T20:24:42.998Z,12.57
2022-08-19T20:27:10.819Z,11.13
2022-08-19T20:29:44.534Z,11.53
2022-08-19T20:32:12.602Z,11.63
2022-08-19T20:34:41.345Z,10.50
2022-08-19T20:37:11.838Z,10.40
2022-08-19T20:39:39.222Z,10.97
2022-08-19T20:42:06.606Z,9.37
2022-08-19T20:44:34.063Z,10.63
2022-08-19T20:47:03.806Z,9.97
2022-08-19T20:49:33.102Z,9.77
2022-08-19T20:52:00.477Z,9.63
2022-08-19T20:54:28.111Z,9.47
2022-08-19T20:56:55.786Z,8.97
2022-08-19T20:59:24.011Z,8.90
2022-08-19T21:01:52.156Z,8.63
2022-08-19T21:04:21.699Z,8.43
2022-08-19T21:06:51.111Z,8.23
2022-08-19T21:09:19.259Z,8.50
2022-08-19T21:11:51.302Z,7.17
2022-08-19T21:14:19.249Z,6.83
2022-08-19T21:16:47.148Z,7.10
2022-08-19T21:19:14.650Z,7.20
2022-08-19T21:21:42.023Z,7.00
2022-08-19T21:24:09.751Z,7.00
2022-08-19T21:26:37.107Z,6.27
2022-08-19T21:29:07.781Z,6.67
2022-08-19T21:31:35.351Z,6.70
2022-08-19T21:34:03.061Z,6.50
2022-08-19T21:36:30.321Z,6.67
2022-08-19T21:38:57.571Z,4.90
2022-08-19T21:41:24.838Z,5.73
2022-08-19T21:43:52.095Z,5.37
2022-08-19T21:46:19.262Z,5.40
2022-08-19T21:48:46.727Z,5.30
2022-08-19T21:51:14.158Z,5.30
2022-08-19T21:53:41.485Z,5.53
2022-08-19T21:56:11.700Z,5.13
2022-08-19T21:58:38.925Z,5.23
2022-08-19T22:01:08.123Z,6.10
2022-08-19T22:03:39.443Z,5.90
2022-08-19T22:06:07.279Z,6.17
2022-08-19T22:08:34.800Z,6.20
2022-08-19T22:11:04.866Z,6.87
2022-08-19T22:13:40.564Z,5.77
2022-08-19T22:16:09.930Z,6.57
2022-08-19T22:18:57.165Z,6.53
2022-08-19T22:21:39.950Z,5.77
2022-08-19T22:24:08.920Z,5.47
2022-08-19T22:26:38.225Z,6.20
2022-08-19T22:29:05.834Z,5.57
2022-08-19T22:32:26.846Z,6.23
2022-08-19T22:34:58.823Z,5.80
2022-08-19T22:37:29.425Z,6.83
2022-08-19T22:39:56.945Z,6.40
2022-08-19T22:42:31.801Z,6.47
2022-08-19T22:45:00.699Z,6.30
2022-08-19T22:47:30.227Z,6.20
2022-08-19T22:50:05.636Z,6.70
2022-08-19T22:52:34.605Z,5.87
2022-08-19T22:55:06.463Z,6.33
2022-08-19T22:57:33.942Z,6.53
2022-08-19T23:00:02.153Z,6.40
2022-08-19T23:02:51.643Z,6.80
2022-08-19T23:05:22.762Z,6.17
2022-08-19T23:07:52.926Z,6.37
2022-08-19T23:10:27.276Z,7.73
2022-08-19T23:12:58.405Z,6.80
2022-08-19T23:15:30.678Z,6.50
2022-08-19T23:18:02.061Z,6.43
2022-08-19T23:20:35.376Z,7.47
2022-08-19T23:23:07.999Z,7.60
2022-08-19T23:25:37.771Z,7.00
2022-08-19T23:28:25.264Z,7.50
2022-08-19T23:30:54.598Z,7.93
2022-08-19T23:33:46.775Z,6.90
2022-08-19T23:36:20.606Z,7.37
2022-08-19T23:38:52.048Z,6.63
2022-08-19T23:41:23.343Z,7.33
2022-08-19T23:43:54.890Z,7.50
2022-08-19T23:46:27.589Z,7.13
2022-08-19T23:48:58.291Z,7.27
2022-08-19T23:51:26.857Z,7.83
2022-08-19T23:53:54.833Z,7.27
2022-08-19T23:56:22.342Z,6.20
2022-08-19T23:58:49.615Z,7.67
